createdAt,value
2022-11-25T00:01:32.934Z,100984.41
2022-11-25T00:04:01.459Z,100982.17
2022-11-25T00:06:34.875Z,100987.75
2022-11-25T00:09:07.623Z,100988.06
2022-11-25T00:11:36.860Z,100988.65
2022-11-25T00:14:05.667Z,100994.30
2022-11-25T00:16:33.534Z,100992.75
2022-11-25T00:19:01.425Z,100984.64
2022-11-25T00:21:32.696Z,100980.05
2022-11-25T00:24:03.911Z,100985.65
2022-11-25T00:26:33.939Z,100982.11
2022-11-25T00:29:07.514Z,100991.04
2022-11-25T00:31:39.471Z,100988.01
2022-11-25T00:34:07.918Z,100984.55
2022-11-25T00:36:37.738Z,100988.63
2022-11-25T00:39:17.188Z,100985.31
2022-11-25T00:42:04.483Z,100989.67
2022-11-25T00:44:40.711Z,100998.42
2022-11-25T00:47:14.646Z,101005.54
2022-11-25T00:49:54.769Z,101012.95
2022-11-25T00:52:25.278Z,101017.58
2022-11-25T00:54:54.878Z,101017.15
2022-11-25T00:57:24.080Z,101016.63
2022-11-25T00:59:52.236Z,101013.97
2022-11-25T01:02:26.454Z,101007.10
2022-11-25T01:04:55.989Z,101014.86
2022-11-25T01:07:23.998Z,101013.59
2022-11-25T01:09:51.900Z,101014.85
2022-11-25T01:12:19.914Z,101020.02
2022-11-25T01:14:47.633Z,101024.20
2022-11-25T01:17:15.863Z,101028.11
2022-11-25T01:19:43.577Z,101030.30
2022-11-25T01:22:11.497Z,101034.77
2022-11-25T01:24:39.304Z,101033.12
2022-11-25T01:27:07.153Z,101031.86
2022-11-25T01:29:35.034Z,101027.38
2022-11-25T01:32:02.925Z,101029.80
2022-11-25T01:34:32.547Z,101029.94
2022-11-25T01:37:00.523Z,101023.73
2022-11-25T01:39:32.564Z,101017.89
2022-11-25T01:42:02.058Z,101022.02
2022-11-25T01:44:32.224Z,101021.68
2022-11-25T01:47:14.685Z,101028.37
2022-11-25T01:49:56.738Z,101026.37
2022-11-25T01:52:33.125Z,101025.63
2022-11-25T01:55:09.964Z,101028.58
2022-11-25T01:57:43.942Z,101021.49
2022-11-25T02:00:12.889Z,101022.85
2022-11-25T02:02:49.587Z,101020.83
2022-11-25T02:05:21.622Z,101024.44
2022-11-25T02:07:53.139Z,101028.02
2022-11-25T02:10:31.262Z,101031.98
2022-11-25T02:12:59.679Z,101034.70
2022-11-25T02:15:29.602Z,101033.16
2022-11-25T02:17:57.613Z,101027.58
2022-11-25T02:20:25.736Z,101022.35
2022-11-25T02:23:16.984Z,101025.50
2022-11-25T02:25:46.981Z,101025.67
2022-11-25T02:28:29.560Z,101021.45
2022-11-25T02:30:58.351Z,101021.61
2022-11-25T02:33:27.860Z,101024.46
2022-11-25T02:35:59.590Z,101019.46
2022-11-25T02:38:42.560Z,101018.66
2022-11-25T02:41:16.414Z,101015.48
2022-11-25T02:43:46.103Z,101023.48
2022-11-25T02:46:22.446Z,101024.57
2022-11-25T02:49:09.934Z,101026.65
2022-11-25T02:51:41.137Z,101024.52
2022-11-25T02:54:10.459Z,101026.23
2022-11-25T02:56:40.122Z,101032.80
2022-11-25T02:59:10.056Z,101038.95
2022-11-25T03:01:38.913Z,101035.98
2022-11-25T03:04:08.080Z,101034.23
2022-11-25T03:06:36.615Z,101035.73
2022-11-25T03:09:04.399Z,101039.29
2022-11-25T03:11:51.292Z,101039.80
2022-11-25T03:14:20.363Z,101039.04
2022-11-25T03:16:48.171Z,101032.41
2022-11-25T03:19:16.068Z,101032.27
2022-11-25T03:21:46.117Z,101030.42
2022-11-25T03:24:14.023Z,101037.97
2022-11-25T03:26:41.757Z,101037.27
2022-11-25T03:29:09.586Z,101043.80
2022-11-25T03:31:40.760Z,101048.98
2022-11-25T03:34:10.576Z,101042.98
2022-11-25T03:36:39.384Z,101040.36
2022-11-25T03:39:07.319Z,101041.36
2022-11-25T03:41:35.556Z,101044.52
2022-11-25T03:44:03.464Z,101044.05
2022-11-25T03:46:31.274Z,101045.76
2022-11-25T03:48:59.509Z,101043.52
2022-11-25T03:51:28.720Z,101041.96
2022-11-25T03:53:56.649Z,101044.91
2022-11-25T03:56:24.679Z,101042.31
2022-11-25T03:58:52.698Z,101044.30
2022-11-25T04:01:20.778Z,101050.73
2022-11-25T04:03:48.643Z,101050.90
2022-11-25T04:06:20.167Z,101055.36
2022-11-25T04:08:48.781Z,101054.61
2022-11-25T04:11:17.332Z,101058.53
2022-11-25T04:13:46.356Z,101060.33
2022-11-25T04:16:25.044Z,101065.98
2022-11-25T04:18:53.313Z,101064.17
2022-11-25T04:21:21.307Z,101073.39
2022-11-25T04:23:49.204Z,101071.72
2022-11-25T04:26:17.092Z,101075.29
2022-11-25T04:28:45.848Z,101074.55
2022-11-25T04:31:14.185Z,101078.21
2022-11-25T04:33:45.961Z,101069.52
2022-11-25T04:36:16.419Z,101072.61
2022-11-25T04:38:46.547Z,101069.68
2022-11-25T04:41:14.638Z,101075.95
2022-11-25T04:43:43.709Z,101071.59
2022-11-25T04:46:19.422Z,101066.73
2022-11-25T04:48:50.440Z,101067.31
2022-11-25T04:51:18.474Z,101063.94
2022-11-25T04:53:47.182Z,101066.26
2022-11-25T04:56:18.907Z,101065.02
2022-11-25T04:59:05.909Z,101062.20
2022-11-25T05:01:33.959Z,101069.32
2022-11-25T05:04:09.581Z,101070.67
2022-11-25T05:06:37.737Z,101062.00
2022-11-25T05:09:06.674Z,101071.25
2022-11-25T05:11:36.732Z,101074.34
2022-11-25T05:14:04.830Z,101075.64
2022-11-25T05:16:33.728Z,101074.39
2022-11-25T05:19:02.110Z,101073.52
2022-11-25T05:21:30.791Z,101071.23
2022-11-25T05:23:59.710Z,101071.03
2022-11-25T05:26:29.427Z,101074.21
2022-11-25T05:29:00.565Z,101068.94
2022-11-25T05:31:30.488Z,101076.17
2022-11-25T05:34:02.078Z,101076.70
2022-11-25T05:36:32.385Z,101069.61
2022-11-25T05:39:00.466Z,101077.59
2022-11-25T05:41:47.796Z,101077.21
2022-11-25T05:44:21.205Z,101083.44
2022-11-25T05:46:51.263Z,101083.36
2022-11-25T05:49:19.998Z,101079.77
2022-11-25T05:51:49.942Z,101077.11
2022-11-25T05:54:19.879Z,101077.33
2022-11-25T05:56:48.053Z,101077.95
2022-11-25T05:59:41.830Z,101081.11
2022-11-25T06:02:14.949Z,101089.45
2022-11-25T06:04:43.773Z,101092.48
2022-11-25T06:07:11.902Z,101091.73
2022-11-25T06:09:40.347Z,101098.94
2022-11-25T06:12:08.256Z,101099.79
2022-11-25T06:14:39.521Z,101099.35
2022-11-25T06:17:07.784Z,101097.98
2022-11-25T06:19:40.554Z,101099.48
2022-11-25T06:22:08.880Z,101107.48
2022-11-25T06:24:37.080Z,101106.11
2022-11-25T06:27:08.155Z,101103.55
2022-11-25T06:29:36.310Z,101103.85
2022-11-25T06:32:04.484Z,101103.98
2022-11-25T06:34:42.143Z,101102.62
2022-11-25T06:37:16.615Z,101109.50
2022-11-25T06:39:44.448Z,101105.45
2022-11-25T06:42:12.321Z,101103.95
2022-11-25T06:44:40.231Z,101109.41
2022-11-25T06:47:08.466Z,101112.64
2022-11-25T06:49:36.685Z,101122.66
2022-11-25T06:52:04.671Z,101125.98
2022-11-25T06:54:32.484Z,101130.98
2022-11-25T06:57:00.438Z,101125.27
2022-11-25T06:59:28.501Z,101126.70
2022-11-25T07:01:56.753Z,101125.52
2022-11-25T07:04:24.813Z,101126.62
2022-11-25T07:06:52.917Z,101131.27
2022-11-25T07:09:22.425Z,101133.55
2022-11-25T07:11:50.440Z,101135.62
2022-11-25T07:14:18.536Z,101137.77
2022-11-25T07:16:47.176Z,101140.78
2022-11-25T07:19:16.913Z,101148.17
2022-11-25T07:21:46.112Z,101146.91
2022-11-25T07:24:15.882Z,101150.54
2022-11-25T07:26:45.178Z,101149.65
2022-11-25T07:29:50.363Z,101155.10
2022-11-25T07:32:10.553Z,101153.40
2022-11-25T07:34:39.675Z,101159.62
2022-11-25T07:37:09.041Z,101158.60
2022-11-25T07:39:37.444Z,101162.98
2022-11-25T07:42:06.001Z,101160.04
2022-11-25T07:44:34.445Z,101159.79
2022-11-25T07:47:13.679Z,101162.23
2022-11-25T07:49:42.005Z,101163.06
2022-11-25T07:52:10.804Z,101166.22
2022-11-25T07:54:38.862Z,101165.45
2022-11-25T07:57:06.808Z,101171.71
2022-11-25T07:59:36.378Z,101173.06
2022-11-25T08:02:04.633Z,101169.34
2022-11-25T08:04:32.611Z,101172.60
2022-11-25T08:07:00.570Z,101170.83
2022-11-25T08:09:28.669Z,101173.55
2022-11-25T08:11:56.671Z,101169.04
2022-11-25T08:14:25.857Z,101164.54
2022-11-25T08:16:53.810Z,101167.47
2022-11-25T08:19:23.137Z,101169.86
2022-11-25T08:21:54.785Z,101172.91
2022-11-25T08:24:22.729Z,101175.89
2022-11-25T08:26:51.641Z,101172.49
2022-11-25T08:29:20.538Z,101170.71
2022-11-25T08:31:48.478Z,101166.02
2022-11-25T08:34:20.306Z,101164.44
2022-11-25T08:36:49.511Z,101173.39
2022-11-25T08:42:07.611Z,101175.73
2022-11-25T08:44:36.400Z,101173.05
2022-11-25T08:47:04.451Z,101175.83
2022-11-25T08:49:36.198Z,101183.09
2022-11-25T08:52:39.125Z,101181.92
2022-11-25T08:55:08.596Z,101182.48
2022-11-25T08:57:36.637Z,101186.23
2022-11-25T09:00:06.385Z,101197.39
2022-11-25T09:02:34.817Z,101202.74
2022-11-25T09:05:03.201Z,101203.55
2022-11-25T09:07:31.463Z,101200.21
2022-11-25T09:09:59.566Z,101192.55
2022-11-25T09:12:27.539Z,101192.41
2022-11-25T09:14:55.479Z,101192.29
2022-11-25T09:17:23.874Z,101187.08
2022-11-25T09:19:52.483Z,101192.13
2022-11-25T09:22:20.995Z,101191.29
2022-11-25T09:24:49.475Z,101198.52
2022-11-25T09:27:18.463Z,101197.84
2022-11-25T09:29:46.608Z,101195.75
2022-11-25T09:32:15.279Z,101200.45
2022-11-25T09:34:48.619Z,101195.16
2022-11-25T09:37:17.324Z,101188.05
2022-11-25T09:51:32.725Z,101191.33
2022-11-25T09:54:26.664Z,101190.59
2022-11-25T09:57:13.988Z,101190.10
2022-11-25T09:59:52.662Z,101191.26
2022-11-25T10:02:29.400Z,101191.90
2022-11-25T10:05:21.786Z,101191.88
2022-11-25T10:07:53.984Z,101185.54
2022-11-25T10:10:41.930Z,101185.20
2022-11-25T10:13:32.257Z,101186.05
2022-11-25T10:16:04.217Z,101187.19
2022-11-25T10:18:39.980Z,101188.88
2022-11-25T10:21:11.674Z,101185.55
2022-11-25T10:23:40.234Z,101188.19
2022-11-25T10:26:16.944Z,101190.08
2022-11-25T10:29:06.251Z,101190.64
2022-11-25T10:31:37.670Z,101192.64
2022-11-25T10:40:01.765Z,101192.32
2022-11-25T10:42:30.453Z,101194.25
2022-11-25T10:44:58.708Z,101194.75
2022-11-25T10:47:33.182Z,101192.70
2022-11-25T10:50:20.213Z,101189.46
2022-11-25T10:53:00.290Z,101192.10
2022-11-25T10:55:36.141Z,101195.55
2022-11-25T10:58:28.750Z,101197.52
2022-11-25T11:01:19.936Z,101196.09
2022-11-25T11:03:55.587Z,101195.07
2022-11-25T11:06:31.614Z,101201.04
2022-11-25T11:09:00.513Z,101202.49
2022-11-25T11:11:29.538Z,101202.27
2022-11-25T11:14:12.569Z,101198.37
2022-11-25T11:16:45.747Z,101195.46
2022-11-25T11:19:30.155Z,101202.14
2022-11-25T11:22:16.337Z,101195.62
2022-11-25T11:24:44.415Z,101197.16
2022-11-25T11:27:21.265Z,101198.65
2022-11-25T11:30:09.176Z,101202.48
2022-11-25T11:32:39.679Z,101201.72
2022-11-25T11:35:19.321Z,101198.61
2022-11-25T11:37:54.369Z,101197.58
2022-11-25T11:40:46.620Z,101195.34
2022-11-25T11:43:24.023Z,101197.52
2022-11-25T11:46:26.108Z,101199.99
2022-11-25T11:49:30.688Z,101201.95
2022-11-25T11:52:45.192Z,101201.31
2022-11-25T11:55:41.568Z,101194.48
2022-11-25T11:58:46.999Z,101194.02
2022-11-25T12:01:26.847Z,101195.23
2022-11-25T12:04:11.746Z,101193.61
2022-11-25T12:06:43.247Z,101193.61
2022-11-25T12:09:20.118Z,101194.82
2022-11-25T12:12:04.220Z,101191.84
2022-11-25T12:14:44.324Z,101190.54
2022-11-25T12:17:26.010Z,101196.96
2022-11-25T12:20:24.308Z,101194.35
2022-11-25T12:23:02.266Z,101192.02
2022-11-25T12:25:36.208Z,101195.80
2022-11-25T12:28:20.518Z,101197.70
2022-11-25T12:31:17.366Z,101196.41
2022-11-25T12:33:52.450Z,101195.09
2022-11-25T12:36:47.880Z,101192.56
2022-11-25T12:39:37.430Z,101188.81
2022-11-25T12:42:14.527Z,101186.17
2022-11-25T12:44:58.564Z,101182.80
2022-11-25T12:47:27.592Z,101187.07
2022-11-25T12:49:57.149Z,101187.98
2022-11-25T12:53:02.186Z,101187.52
2022-11-25T12:55:32.131Z,101189.41
2022-11-25T12:58:29.245Z,101191.08
2022-11-25T13:01:22.135Z,101193.98
2022-11-25T13:04:01.996Z,101195.79
2022-11-25T13:06:49.584Z,101196.76
2022-11-25T13:09:51.685Z,101204.33
2022-11-25T13:12:28.267Z,101204.67
2022-11-25T13:15:19.592Z,101203.63
2022-11-25T13:17:51.879Z,101204.59
2022-11-25T13:20:29.796Z,101203.95
2022-11-25T13:23:08.127Z,101204.39
2022-11-25T13:25:40.467Z,101206.06
2022-11-25T13:28:34.380Z,101208.27
2022-11-25T13:31:32.064Z,101209.08
2022-11-25T13:34:19.664Z,101208.92
2022-11-25T13:37:00.209Z,101211.95
2022-11-25T13:39:31.213Z,101215.78
2022-11-25T13:42:08.941Z,101217.68
2022-11-25T13:44:52.883Z,101215.56
2022-11-25T13:47:35.251Z,101211.45
2022-11-25T13:50:36.823Z,101213.77
2022-11-25T13:53:31.204Z,101215.51
2022-11-25T13:56:26.868Z,101220.99
2022-11-25T13:59:11.034Z,101222.46
2022-11-25T14:01:41.264Z,101226.91
2022-11-25T14:04:13.314Z,101230.98
2022-11-25T14:07:14.450Z,101232.85
2022-11-25T14:10:03.451Z,101234.65
2022-11-25T14:13:03.155Z,101237.58
2022-11-25T14:16:23.558Z,101239.14
2022-11-25T14:19:49.619Z,101237.25
2022-11-25T14:22:24.700Z,101242.02
2022-11-25T14:25:01.895Z,101243.64
2022-11-25T14:27:37.443Z,101245.05
2022-11-25T14:30:10.736Z,101243.69
2022-11-25T14:32:53.577Z,101245.05
2022-11-25T14:35:29.134Z,101242.68
2022-11-25T14:38:04.555Z,101247.73
2022-11-25T14:41:17.168Z,101249.42
2022-11-25T14:43:52.487Z,101252.39
2022-11-25T14:46:26.007Z,101253.02
2022-11-25T14:49:07.641Z,101260.47
2022-11-25T14:51:46.965Z,101261.21
2022-11-25T14:54:15.924Z,101262.65
2022-11-25T14:56:45.470Z,101262.90
2022-11-25T14:59:15.441Z,101262.33
2022-11-25T15:01:55.021Z,101263.95
2022-11-25T15:04:25.711Z,101261.75
2022-11-25T15:07:02.763Z,101270.20
2022-11-25T15:09:42.639Z,101269.70
2022-11-25T15:12:19.064Z,101268.55
2022-11-25T15:14:53.771Z,101268.86
2022-11-25T15:17:32.079Z,101266.84
2022-11-25T15:20:15.354Z,101268.59
2022-11-25T15:22:50.346Z,101273.05
2022-11-25T15:25:19.305Z,101266.95
2022-11-25T15:27:53.873Z,101268.66
2022-11-25T15:30:29.541Z,101267.37
2022-11-25T15:32:58.806Z,101270.66
2022-11-25T15:35:28.191Z,101276.69
2022-11-25T15:37:57.812Z,101276.08
2022-11-25T15:40:44.131Z,101277.59
2022-11-25T15:43:25.139Z,101281.87
2022-11-25T15:46:01.763Z,101283.33
2022-11-25T15:48:51.941Z,101286.32
2022-11-25T15:51:32.715Z,101285.70
2022-11-25T15:54:19.259Z,101286.95
2022-11-25T15:56:51.476Z,101283.73
2022-11-25T15:59:40.764Z,101289.23
2022-11-25T16:02:42.592Z,101291.67
2022-11-25T16:05:17.603Z,101290.80
2022-11-25T16:07:52.672Z,101291.80
2022-11-25T16:10:31.893Z,101287.58
2022-11-25T16:13:31.913Z,101289.88
2022-11-25T16:16:23.760Z,101292.09
2022-11-25T16:19:02.764Z,101288.55
2022-11-25T16:21:38.998Z,101288.02
2022-11-25T16:24:40.870Z,101294.50
2022-11-25T16:27:24.949Z,101291.98
2022-11-25T16:29:55.018Z,101292.41
2022-11-25T16:32:24.350Z,101290.04
2022-11-25T16:34:57.192Z,101292.40
2022-11-25T16:37:32.624Z,101293.86
2022-11-25T16:40:02.703Z,101294.58
2022-11-25T16:42:31.350Z,101296.61
2022-11-25T16:45:01.452Z,101295.26
2022-11-25T16:47:30.661Z,101296.70
2022-11-25T16:49:59.586Z,101299.32
2022-11-25T16:52:28.936Z,101304.20
2022-11-25T16:54:57.759Z,101306.75
2022-11-25T16:57:29.945Z,101303.59
2022-11-25T17:00:07.723Z,101310.54
2022-11-25T17:02:36.584Z,101303.02
2022-11-25T17:05:26.850Z,101302.25
2022-11-25T17:07:58.822Z,101302.90
2022-11-25T17:10:28.434Z,101306.86
2022-11-25T17:13:03.652Z,101306.33
2022-11-25T17:15:38.194Z,101302.75
2022-11-25T17:18:09.414Z,101303.18
2022-11-25T17:20:40.256Z,101306.48
2022-11-25T17:23:17.582Z,101306.88
2022-11-25T17:25:50.170Z,101315.61
2022-11-25T17:28:21.589Z,101314.91
2022-11-25T17:30:50.865Z,101314.27
2022-11-25T17:33:26.813Z,101314.11
2022-11-25T17:35:56.220Z,101316.58
2022-11-25T17:38:27.570Z,101319.77
2022-11-25T17:40:56.246Z,101317.86
2022-11-25T17:43:30.370Z,101316.73
2022-11-25T17:46:02.472Z,101310.10
2022-11-25T17:48:31.786Z,101313.11
2022-11-25T17:51:07.215Z,101317.42
2022-11-25T17:53:38.887Z,101320.86
2022-11-25T17:56:28.867Z,101318.71
2022-11-25T17:59:04.746Z,101322.69
2022-11-25T18:01:39.025Z,101328.55
2022-11-25T18:04:16.489Z,101339.79
2022-11-25T18:06:48.084Z,101335.02
2022-11-25T18:09:17.469Z,101337.52
2022-11-25T18:11:53.415Z,101345.64
2022-11-25T18:14:26.509Z,101340.73
2022-11-25T18:16:56.569Z,101340.73
2022-11-25T18:19:26.080Z,101345.79
2022-11-25T18:22:01.025Z,101347.30
2022-11-25T18:24:33.560Z,101342.44
2022-11-25T18:27:11.004Z,101337.10
2022-11-25T18:29:42.220Z,101346.09
2022-11-25T18:32:16.840Z,101349.52
2022-11-25T18:34:50.792Z,101351.91
2022-11-25T18:37:22.320Z,101357.52
2022-11-25T18:39:57.979Z,101356.45
2022-11-25T18:42:31.984Z,101348.95
2022-11-25T18:47:04.715Z,101351.98
2022-11-25T18:49:33.488Z,101357.04
2022-11-25T18:52:02.295Z,101355.77
2022-11-25T18:54:31.519Z,101362.22
2022-11-25T18:57:02.128Z,101362.46
2022-11-25T18:59:37.473Z,101364.50
2022-11-25T19:02:22.109Z,101362.04
2022-11-25T19:04:58.527Z,101370.52
2022-11-25T19:07:30.159Z,101381.77
2022-11-25T19:09:57.568Z,101380.27
2022-11-25T19:12:27.025Z,101382.25
2022-11-25T19:14:59.659Z,101383.09
2022-11-25T19:17:34.063Z,101388.77
2022-11-25T19:20:12.742Z,101390.70
2022-11-25T19:22:41.813Z,101388.16
2022-11-25T19:25:15.962Z,101389.87
2022-11-25T19:27:51.896Z,101389.95
2022-11-25T19:30:25.775Z,101391.02
2022-11-25T19:32:57.079Z,101395.05
2022-11-25T19:35:29.458Z,101399.22
2022-11-25T19:37:57.421Z,101399.19
2022-11-25T19:40:24.981Z,101401.52
2022-11-25T19:42:52.371Z,101402.82
2022-11-25T19:45:20.648Z,101403.33
2022-11-25T19:47:55.387Z,101404.38
2022-11-25T19:50:28.266Z,101410.13
2022-11-25T19:52:55.906Z,101413.67
2022-11-25T19:55:29.979Z,101412.88
2022-11-25T19:57:58.555Z,101416.86
2022-11-25T20:00:27.989Z,101412.92
2022-11-25T20:02:56.928Z,101421.29
2022-11-25T20:05:37.898Z,101422.33
2022-11-25T20:08:08.147Z,101425.23
2022-11-25T20:10:35.953Z,101428.73
2022-11-25T20:13:06.566Z,101430.27
2022-11-25T20:15:38.555Z,101431.84
2022-11-25T20:32:31.275Z,101443.88
2022-11-25T20:35:28.364Z,101448.25
2022-11-25T20:37:57.382Z,101451.37
2022-11-25T20:40:32.433Z,101450.94
2022-11-25T20:43:01.128Z,101448.61
2022-11-25T20:45:27.839Z,101455.58
2022-11-25T20:47:55.185Z,101457.52
2022-11-25T20:50:22.036Z,101459.62
2022-11-25T20:52:51.976Z,101458.05
2022-11-25T20:55:24.870Z,101460.80
2022-11-25T20:57:52.290Z,101458.02
2022-11-25T21:00:26.965Z,101459.79
2022-11-25T21:02:56.953Z,101456.40
2022-11-25T21:05:27.730Z,101451.88
2022-11-25T21:07:55.477Z,101456.17
2022-11-25T21:10:27.214Z,101459.42
2022-11-25T21:12:55.946Z,101459.79
2022-11-25T21:15:25.477Z,101465.34
2022-11-25T21:17:52.854Z,101470.42
2022-11-25T21:20:20.091Z,101467.52
2022-11-25T21:22:49.545Z,101467.55
2022-11-25T21:25:19.507Z,101468.27
2022-11-25T21:27:48.299Z,101469.42
2022-11-25T21:30:20.769Z,101472.73
2022-11-25T21:32:48.022Z,101469.14
2022-11-25T21:35:14.942Z,101472.34
2022-11-25T21:37:43.810Z,101470.33
2022-11-25T21:40:38.244Z,101476.45
2022-11-25T21:43:12.909Z,101476.38
2022-11-25T21:45:41.598Z,101478.63
2022-11-25T21:52:27.258Z,101481.73
2022-11-25T22:00:00.102Z,101492.44
2022-11-25T22:07:06.275Z,101494.62
2022-11-25T22:09:32.770Z,101493.14
2022-11-25T22:12:00.032Z,101492.34
2022-11-25T22:14:34.038Z,101492.13
2022-11-25T22:17:05.551Z,101491.52
2022-11-25T22:19:32.871Z,101491.68
2022-11-25T22:21:59.281Z,101498.36
2022-11-25T22:24:25.653Z,101497.34
2022-11-25T22:26:57.842Z,101501.33
2022-11-25T22:29:32.853Z,101506.48
2022-11-25T22:32:00.487Z,101509.68
2022-11-25T22:34:27.989Z,101507.85
2022-11-25T22:36:54.470Z,101507.91
2022-11-25T22:39:25.441Z,101511.04
2022-11-25T22:42:01.917Z,101512.52
2022-11-25T22:44:42.179Z,101516.73
2022-11-25T22:47:28.481Z,101514.42
2022-11-25T22:49:55.050Z,101515.39
2022-11-25T22:52:27.044Z,101516.43
2022-11-25T22:54:54.640Z,101515.90
2022-11-25T22:57:21.956Z,101518.73
2022-11-25T22:59:49.188Z,101521.55
2022-11-25T23:02:20.004Z,101521.58
2022-11-25T23:04:51.934Z,101521.86
2022-11-25T23:07:20.601Z,101523.14
2022-11-25T23:09:47.453Z,101527.01
2022-11-25T23:12:14.935Z,101529.34
2022-11-25T23:14:42.203Z,101527.48
2022-11-25T23:17:24.822Z,101525.87
2022-11-25T23:19:51.609Z,101527.80
2022-11-25T23:22:18.890Z,101528.46
2022-11-25T23:24:47.540Z,101527.34
2022-11-25T23:27:15.651Z,101534.30
2022-11-25T23:29:42.160Z,101535.77
2022-11-25T23:32:18.280Z,101540.66
2022-11-25T23:34:45.047Z,101545.13
2022-11-25T23:37:13.009Z,101544.55
2022-11-25T23:39:39.783Z,101545.56
2022-11-25T23:42:16.471Z,101549.20
2022-11-25T23:44:43.532Z,101544.89
2022-11-25T23:47:16.753Z,101550.02
2022-11-25T23:49:45.847Z,101551.43
2022-11-25T23:52:23.517Z,101552.33
2022-11-25T23:54:51.820Z,101550.33
2022-11-25T23:57:25.444Z,101553.66
2022-11-25T23:59:52.568Z,101549.38
